createdAt,value
2019-02-07T00:00:17.995Z,62.13
2019-02-07T00:02:46.265Z,60.78
2019-02-07T00:05:14.671Z,57.90
2019-02-07T00:07:43.713Z,60.20
2019-02-07T00:10:19.989Z,62.85
2019-02-07T00:12:48.310Z,60.55
2019-02-07T00:15:16.821Z,61.48
2019-02-07T00:17:45.103Z,65.35
2019-02-07T00:20:16.636Z,66.02
2019-02-07T00:22:44.933Z,59.18
2019-02-07T00:25:13.277Z,63.42
2019-02-07T00:27:41.538Z,64.07
2019-02-07T00:30:18.670Z,57.67
2019-02-07T00:32:46.940Z,55.40
2019-02-07T00:35:15.241Z,56.95
2019-02-07T00:37:43.537Z,52.05
2019-02-07T00:40:16.792Z,53.75
2019-02-07T00:42:45.393Z,59.42
2019-02-07T00:45:17.693Z,57.48
2019-02-07T00:47:46.017Z,54.50
2019-02-07T00:50:18.399Z,54.93
2019-02-07T00:52:49.200Z,55.90
2019-02-07T00:55:18.034Z,53.40
2019-02-07T00:57:46.314Z,57.35
2019-02-07T01:00:23.212Z,52.70
2019-02-07T01:02:51.496Z,52.83
2019-02-07T01:05:20.909Z,54.95
2019-02-07T01:07:49.484Z,53.10
2019-02-07T01:10:23.898Z,52.08
2019-02-07T01:12:52.162Z,57.03
2019-02-07T01:15:20.631Z,57.43
2019-02-07T01:17:49.037Z,57.27
2019-02-07T01:20:17.485Z,55.00
2019-02-07T01:22:45.838Z,51.92
2019-02-07T01:25:20.170Z,54.93
2019-02-07T01:27:48.452Z,52.85
2019-02-07T01:30:20.006Z,57.67
2019-02-07T01:32:48.286Z,60.35
2019-02-07T01:35:16.575Z,59.03
2019-02-07T01:37:44.846Z,57.95
2019-02-07T01:40:16.124Z,58.92
2019-02-07T01:42:44.418Z,58.90
2019-02-07T01:45:19.270Z,58.92
2019-02-07T01:47:49.212Z,57.75
2019-02-07T01:50:22.076Z,59.25
2019-02-07T01:52:50.632Z,63.95
2019-02-07T01:55:18.918Z,59.48
2019-02-07T01:57:47.192Z,62.80
2019-02-07T02:00:17.262Z,59.55
2019-02-07T02:02:45.613Z,64.20
2019-02-07T02:05:15.513Z,58.90
2019-02-07T02:07:44.196Z,56.75
2019-02-07T02:10:15.601Z,58.87
2019-02-07T02:12:43.876Z,55.23
2019-02-07T02:15:23.716Z,59.40
2019-02-07T02:17:42.925Z,60.60
2019-02-07T02:20:19.080Z,58.73
2019-02-07T02:22:47.374Z,58.02
2019-02-07T02:25:15.650Z,56.37
2019-02-07T02:27:43.947Z,61.15
2019-02-07T02:30:45.446Z,57.48
2019-02-07T02:33:13.718Z,62.55
2019-02-07T02:35:41.983Z,56.23
2019-02-07T02:38:10.273Z,59.25
2019-02-07T02:40:38.547Z,55.75
2019-02-07T02:43:06.822Z,64.65
2019-02-07T02:45:37.639Z,58.92
2019-02-07T02:48:05.080Z,60.88
2019-02-07T02:50:33.332Z,48.10
2019-02-07T02:53:01.607Z,60.88
2019-02-07T02:55:34.511Z,57.93
2019-02-07T02:58:02.922Z,52.40
2019-02-07T03:00:44.801Z,58.83
2019-02-07T03:03:26.737Z,56.18
2019-02-07T03:06:12.535Z,48.92
2019-02-07T03:08:45.795Z,60.58
2019-02-07T03:11:24.981Z,54.20
2019-02-07T03:13:57.714Z,51.28
2019-02-07T03:16:36.849Z,45.80
2019-02-07T03:19:09.485Z,50.92
2019-02-07T03:21:39.462Z,53.42
2019-02-07T03:24:15.289Z,51.68
2019-02-07T03:27:01.467Z,52.10
2019-02-07T03:29:37.617Z,52.43
2019-02-07T03:32:07.938Z,50.00
2019-02-07T03:34:37.991Z,51.20
2019-02-07T03:37:07.891Z,48.28
2019-02-07T03:39:43.677Z,45.50
2019-02-07T03:42:13.577Z,53.17
2019-02-07T03:44:46.635Z,45.25
2019-02-07T03:47:16.573Z,45.95
2019-02-07T03:49:46.485Z,48.40
2019-02-07T03:52:16.794Z,41.53
2019-02-07T03:54:46.685Z,45.78
2019-02-07T03:57:16.623Z,43.63
2019-02-07T03:59:55.507Z,47.20
2019-02-07T04:02:30.958Z,47.30
2019-02-07T04:05:04.038Z,43.98
2019-02-07T04:07:45.643Z,43.98
2019-02-07T04:10:18.543Z,44.40
2019-02-07T04:12:57.497Z,41.23
2019-02-07T04:15:33.171Z,45.15
2019-02-07T04:18:11.900Z,41.00
2019-02-07T04:20:57.661Z,42.78
2019-02-07T04:23:46.828Z,42.58
2019-02-07T04:26:32.928Z,45.08
2019-02-07T04:29:05.461Z,45.43
2019-02-07T04:31:37.939Z,43.90
2019-02-07T04:34:16.819Z,43.00
2019-02-07T04:36:48.363Z,43.63
2019-02-07T04:39:21.297Z,43.58
2019-02-07T04:41:54.188Z,42.33
2019-02-07T04:44:26.552Z,42.27
2019-02-07T04:46:56.466Z,39.92
2019-02-07T04:49:26.427Z,40.33
2019-02-07T04:52:08.420Z,40.33
2019-02-07T04:54:41.357Z,39.40
2019-02-07T04:57:13.976Z,40.88
2019-02-07T04:59:49.860Z,36.10
2019-02-07T05:02:35.237Z,38.53
2019-02-07T05:05:08.087Z,38.48
2019-02-07T05:07:54.280Z,37.20
2019-02-07T05:10:24.285Z,38.42
2019-02-07T05:13:10.659Z,37.13
2019-02-07T05:15:49.632Z,36.53
2019-02-07T05:18:22.901Z,37.67
2019-02-07T05:20:52.818Z,34.03
2019-02-07T05:23:22.736Z,35.63
2019-02-07T05:25:58.452Z,40.80
2019-02-07T05:28:31.010Z,34.48
2019-02-07T05:31:07.323Z,33.20
2019-02-07T05:33:42.800Z,33.05
2019-02-07T05:36:29.159Z,35.17
2019-02-07T05:39:01.757Z,34.13
2019-02-07T05:41:37.588Z,32.05
2019-02-07T05:44:19.600Z,32.75
2019-02-07T05:47:04.146Z,31.40
2019-02-07T05:49:41.953Z,32.78
2019-02-07T05:52:20.031Z,32.40
2019-02-07T05:55:06.392Z,30.27
2019-02-07T05:57:52.443Z,30.95
2019-02-07T06:00:34.205Z,28.60
2019-02-07T06:03:04.122Z,33.80
2019-02-07T06:05:34.031Z,29.50
2019-02-07T06:08:19.925Z,36.33
2019-02-07T06:11:00.163Z,30.85
2019-02-07T06:13:33.327Z,30.23
2019-02-07T06:16:19.161Z,28.42
2019-02-07T06:19:05.409Z,29.45
2019-02-07T06:21:35.714Z,28.42
2019-02-07T06:24:22.043Z,28.07
2019-02-07T06:26:54.945Z,27.75
2019-02-07T06:29:32.352Z,30.45
2019-02-07T06:32:11.201Z,28.27
2019-02-07T06:34:47.403Z,28.25
2019-02-07T06:37:26.290Z,27.62
2019-02-07T06:40:05.631Z,28.02
2019-02-07T06:42:38.193Z,28.52
2019-02-07T06:45:14.204Z,28.80
2019-02-07T06:47:49.996Z,27.85
2019-02-07T06:50:34.860Z,29.37
2019-02-07T06:53:21.245Z,29.40
2019-02-07T06:55:55.945Z,25.55
2019-02-07T06:58:41.871Z,28.15
2019-02-07T07:01:14.745Z,30.77
2019-02-07T07:03:57.766Z,31.20
2019-02-07T07:06:27.814Z,26.30
2019-02-07T07:09:00.731Z,28.60
2019-02-07T07:11:46.726Z,28.02
2019-02-07T07:14:26.131Z,26.35
2019-02-07T07:16:56.059Z,26.02
2019-02-07T07:19:41.099Z,24.67
2019-02-07T07:25:00.502Z,25.70
2019-02-07T07:27:39.493Z,28.00
2019-02-07T07:30:15.433Z,26.65
2019-02-07T07:32:51.242Z,26.87
2019-02-07T07:35:37.050Z,25.62
2019-02-07T07:38:19.202Z,26.02
2019-02-07T07:40:49.180Z,23.00
2019-02-07T07:43:30.403Z,26.05
2019-02-07T07:46:16.064Z,26.73
2019-02-07T07:48:45.994Z,25.15
2019-02-07T07:51:15.894Z,22.35
2019-02-07T07:53:51.771Z,25.08
2019-02-07T07:56:39.047Z,23.55
2019-02-07T07:59:20.664Z,23.45
2019-02-07T08:01:59.453Z,21.82
2019-02-07T08:04:41.642Z,25.35
2019-02-07T08:07:20.086Z,22.75
2019-02-07T08:09:50.022Z,22.13
2019-02-07T08:12:31.913Z,21.95
2019-02-07T08:15:02.388Z,21.17
2019-02-07T08:17:35.080Z,21.07
2019-02-07T08:20:05.549Z,21.57
2019-02-07T08:22:40.965Z,19.82
2019-02-07T08:25:10.911Z,21.68
2019-02-07T08:27:44.123Z,23.02
2019-02-07T08:30:16.806Z,19.45
2019-02-07T08:32:55.544Z,21.35
2019-02-07T08:35:34.278Z,20.95
2019-02-07T08:38:04.407Z,22.80
2019-02-07T08:43:51.435Z,18.98
2019-02-07T08:46:29.989Z,18.42
2019-02-07T08:49:01.080Z,18.20
2019-02-07T08:51:47.332Z,18.98
2019-02-07T08:54:26.491Z,19.25
2019-02-07T08:56:56.399Z,20.15
2019-02-07T08:59:32.131Z,17.50
2019-02-07T09:02:02.047Z,18.62
2019-02-07T09:04:48.090Z,19.07
2019-02-07T09:07:32.780Z,17.87
2019-02-07T09:10:14.775Z,17.92
2019-02-07T09:13:02.778Z,19.40
2019-02-07T09:15:38.655Z,19.50
2019-02-07T09:18:25.180Z,19.62
2019-02-07T09:20:57.763Z,21.40
2019-02-07T09:23:45.933Z,21.75
2019-02-07T09:26:33.701Z,19.80
2019-02-07T09:29:09.350Z,20.70
2019-02-07T09:31:57.591Z,20.82
2019-02-07T09:34:33.058Z,20.08
2019-02-07T09:37:19.499Z,20.68
2019-02-07T09:39:56.077Z,21.33
2019-02-07T09:42:32.031Z,19.95
2019-02-07T09:45:17.094Z,20.27
2019-02-07T09:50:22.659Z,20.95
2019-02-07T09:53:04.588Z,19.15
2019-02-07T09:55:40.085Z,21.07
2019-02-07T09:58:12.740Z,21.55
2019-02-07T10:00:42.681Z,19.35
2019-02-07T10:03:12.597Z,20.68
2019-02-07T10:05:45.089Z,20.30
2019-02-07T10:08:33.628Z,21.50
2019-02-07T10:11:03.596Z,21.12
2019-02-07T10:13:33.499Z,19.37
2019-02-07T10:16:09.487Z,23.80
2019-02-07T10:18:54.749Z,22.32
2019-02-07T10:21:30.869Z,23.92
2019-02-07T10:24:09.765Z,20.72
2019-02-07T10:26:51.935Z,22.60
2019-02-07T10:29:28.065Z,22.95
2019-02-07T10:32:12.968Z,21.30
2019-02-07T10:34:52.128Z,24.37
2019-02-07T10:37:32.239Z,21.35
2019-02-07T10:40:17.212Z,25.40
2019-02-07T10:43:02.266Z,22.00
2019-02-07T10:48:26.752Z,21.62
2019-02-07T10:51:00.182Z,22.45
2019-02-07T10:53:30.369Z,22.98
2019-02-07T10:56:05.750Z,23.80
2019-02-07T10:58:51.744Z,27.10
2019-02-07T11:01:21.684Z,22.75
2019-02-07T11:03:54.579Z,24.98
2019-02-07T11:06:24.506Z,25.75
2019-02-07T11:09:10.739Z,21.97
2019-02-07T11:11:49.842Z,24.27
2019-02-07T11:14:22.413Z,22.65
2019-02-07T11:16:52.360Z,25.48
2019-02-07T11:19:26.389Z,23.45
2019-02-07T11:22:05.544Z,24.00
2019-02-07T11:24:35.466Z,21.65
2019-02-07T11:27:14.304Z,23.10
2019-02-07T11:29:50.490Z,25.57
2019-02-07T11:32:29.654Z,23.00
2019-02-07T11:34:59.561Z,23.55
2019-02-07T11:37:41.746Z,23.47
2019-02-07T11:40:13.865Z,22.85
2019-02-07T11:42:46.998Z,21.75
2019-02-07T11:45:25.856Z,22.15
2019-02-07T11:47:55.824Z,23.77
2019-02-07T11:50:25.842Z,22.35
2019-02-07T11:53:01.956Z,23.50
2019-02-07T11:55:31.863Z,23.80
2019-02-07T11:58:10.526Z,23.67
2019-02-07T12:00:58.542Z,24.47
2019-02-07T12:03:37.044Z,23.65
2019-02-07T12:06:09.992Z,20.90
2019-02-07T12:08:42.659Z,22.02
2019-02-07T12:11:15.551Z,22.30
2019-02-07T12:13:45.482Z,24.32
2019-02-07T12:16:32.228Z,24.87
2019-02-07T12:19:02.151Z,22.60
2019-02-07T12:21:34.926Z,24.12
2019-02-07T12:24:04.875Z,21.65
2019-02-07T12:26:37.506Z,22.82
2019-02-07T12:29:23.581Z,22.90
2019-02-07T12:32:02.513Z,21.07
2019-02-07T12:34:41.451Z,22.17
2019-02-07T12:37:13.968Z,20.92
2019-02-07T12:39:43.918Z,23.05
2019-02-07T12:42:16.381Z,21.15
2019-02-07T12:45:04.689Z,20.97
2019-02-07T12:47:37.212Z,20.05
2019-02-07T12:50:26.551Z,18.55
2019-02-07T12:52:59.404Z,19.23
2019-02-07T12:55:29.361Z,20.00
2019-02-07T12:58:08.271Z,19.02
2019-02-07T13:00:54.673Z,18.90
2019-02-07T13:03:40.637Z,18.10
2019-02-07T13:06:26.969Z,18.27
2019-02-07T13:08:56.886Z,16.73
2019-02-07T13:11:33.244Z,17.65
2019-02-07T13:16:56.758Z,16.87
2019-02-07T13:19:41.229Z,17.27
2019-02-07T13:22:13.821Z,16.90
2019-02-07T13:24:44.141Z,16.62
2019-02-07T13:27:30.003Z,17.50
2019-02-07T13:30:15.009Z,15.13
2019-02-07T13:32:54.794Z,15.00
2019-02-07T13:35:40.977Z,16.40
2019-02-07T13:38:13.571Z,17.23
2019-02-07T13:40:59.684Z,16.02
2019-02-07T13:43:45.793Z,16.27
2019-02-07T13:46:15.718Z,15.58
2019-02-07T13:48:45.649Z,15.55
2019-02-07T13:51:15.633Z,14.47
2019-02-07T13:53:54.810Z,13.55
2019-02-07T13:56:37.045Z,14.18
2019-02-07T13:59:15.668Z,14.45
2019-02-07T14:01:45.573Z,13.18
2019-02-07T14:04:21.278Z,12.60
2019-02-07T14:07:02.737Z,11.93
2019-02-07T14:09:42.259Z,12.58
2019-02-07T14:12:12.198Z,12.80
2019-02-07T14:14:47.561Z,12.70
2019-02-07T14:17:29.749Z,13.48
2019-02-07T14:20:08.663Z,14.28
2019-02-07T14:22:38.636Z,14.03
2019-02-07T14:25:28.489Z,14.58
2019-02-07T14:27:58.432Z,14.65
2019-02-07T14:30:28.360Z,14.75
2019-02-07T14:33:04.257Z,15.25
2019-02-07T14:35:36.891Z,13.62
2019-02-07T14:38:07.186Z,14.23
2019-02-07T14:40:39.687Z,14.10
2019-02-07T14:43:09.608Z,13.15
2019-02-07T14:45:42.314Z,15.32
2019-02-07T14:48:12.255Z,13.60
2019-02-07T14:50:40.519Z,12.35
2019-02-07T14:53:08.779Z,12.68
2019-02-07T14:55:37.090Z,11.65
2019-02-07T14:58:05.371Z,11.97
2019-02-07T15:00:33.636Z,12.03
2019-02-07T15:03:01.901Z,11.03
2019-02-07T15:05:31.476Z,11.73
2019-02-07T15:08:00.216Z,9.35
2019-02-07T15:10:28.564Z,6.87
2019-02-07T15:12:56.890Z,5.78
2019-02-07T15:15:25.174Z,5.03
2019-02-07T15:17:53.446Z,4.85
2019-02-07T15:20:26.194Z,4.17
2019-02-07T15:22:51.749Z,3.77
2019-02-07T15:25:20.163Z,3.67
2019-02-07T15:27:48.470Z,4.03
2019-02-07T15:30:21.528Z,4.72
2019-02-07T15:32:49.771Z,4.25
2019-02-07T15:35:27.098Z,3.92
2019-02-07T15:37:55.643Z,3.27
2019-02-07T15:40:25.760Z,3.52
2019-02-07T15:42:54.122Z,3.95
2019-02-07T15:45:22.918Z,4.25
2019-02-07T15:47:51.177Z,3.55
2019-02-07T15:50:22.007Z,5.20
2019-02-07T15:52:52.135Z,3.95
2019-02-07T15:55:20.631Z,3.90
2019-02-07T15:57:49.920Z,3.80
2019-02-07T16:00:33.785Z,3.95
2019-02-07T16:03:06.166Z,3.75
2019-02-07T16:05:34.612Z,3.83
2019-02-07T16:08:02.949Z,3.87
2019-02-07T16:10:31.207Z,4.55
2019-02-07T16:12:59.519Z,4.45
2019-02-07T16:15:27.795Z,4.55
2019-02-07T16:17:56.083Z,4.03
2019-02-07T16:20:24.761Z,4.42
2019-02-07T16:22:53.111Z,3.40
2019-02-07T16:25:21.492Z,3.92
2019-02-07T16:27:49.818Z,4.53
2019-02-07T16:30:21.677Z,3.55
2019-02-07T16:32:49.963Z,3.98
2019-02-07T16:35:20.274Z,3.85
2019-02-07T16:37:48.845Z,3.30
2019-02-07T16:40:21.875Z,4.05
2019-02-07T16:42:49.451Z,3.58
2019-02-07T16:45:20.976Z,4.28
2019-02-07T16:47:49.240Z,3.67
2019-02-07T16:50:20.615Z,3.27
2019-02-07T16:52:48.930Z,3.90
2019-02-07T16:55:17.339Z,3.72
2019-02-07T16:57:45.709Z,3.87
2019-02-07T17:00:32.327Z,3.55
2019-02-07T17:03:00.575Z,3.65
2019-02-07T17:05:28.854Z,3.70
2019-02-07T17:07:57.143Z,4.40
2019-02-07T17:10:52.373Z,3.20
2019-02-07T17:13:20.820Z,3.67
2019-02-07T17:15:49.101Z,3.10
2019-02-07T17:18:17.390Z,3.60
2019-02-07T17:20:45.699Z,4.03
2019-02-07T17:23:14.004Z,3.50
2019-02-07T17:25:42.278Z,3.80
2019-02-07T17:28:10.809Z,3.33
2019-02-07T17:30:39.111Z,3.47
2019-02-07T17:33:07.380Z,3.70
2019-02-07T17:35:35.715Z,3.45
2019-02-07T17:38:05.781Z,2.98
2019-02-07T17:40:34.068Z,3.02
2019-02-07T17:43:02.329Z,3.98
2019-02-07T17:45:32.013Z,3.55
2019-02-07T17:48:00.272Z,3.62
2019-02-07T17:50:40.272Z,3.65
2019-02-07T17:53:09.885Z,3.98
2019-02-07T17:55:38.154Z,3.12
2019-02-07T17:58:07.166Z,3.83
2019-02-07T18:00:40.335Z,4.30
2019-02-07T18:03:08.597Z,3.47
2019-02-07T18:05:36.905Z,4.20
2019-02-07T18:08:05.470Z,3.40
2019-02-07T18:10:33.772Z,3.70
2019-02-07T18:13:02.030Z,3.80
2019-02-07T18:15:30.297Z,3.80
2019-02-07T18:18:02.777Z,3.83
2019-02-07T18:20:30.230Z,3.90
2019-02-07T18:23:00.208Z,4.50
2019-02-07T18:25:28.493Z,3.47
2019-02-07T18:27:56.832Z,3.98
2019-02-07T18:30:25.356Z,4.00
2019-02-07T18:32:53.662Z,3.87
2019-02-07T18:35:22.047Z,3.40
2019-02-07T18:37:50.335Z,4.05
2019-02-07T18:40:24.057Z,4.17
2019-02-07T18:42:52.359Z,5.20
2019-02-07T18:45:21.555Z,5.17
2019-02-07T18:47:49.952Z,6.03
2019-02-07T18:50:28.074Z,6.25
2019-02-07T18:52:56.745Z,6.30
2019-02-07T18:55:25.408Z,7.05
2019-02-07T18:57:53.762Z,7.05
2019-02-07T19:00:28.108Z,7.50
2019-02-07T19:02:56.376Z,8.63
2019-02-07T19:05:26.356Z,8.40
2019-02-07T19:07:54.732Z,8.10
2019-02-07T19:10:29.613Z,8.28
2019-02-07T19:12:58.570Z,6.97
2019-02-07T19:15:45.897Z,7.90
2019-02-07T19:18:14.370Z,9.08
2019-02-07T19:20:42.873Z,7.83
2019-02-07T19:23:11.173Z,7.50
2019-02-07T19:25:39.867Z,7.00
2019-02-07T19:28:11.254Z,7.12
2019-02-07T19:30:39.565Z,7.50
2019-02-07T19:33:07.948Z,7.30
2019-02-07T19:35:37.881Z,8.08
2019-02-07T19:38:06.250Z,6.97
2019-02-07T19:40:38.089Z,7.00
2019-02-07T19:43:06.402Z,7.75
2019-02-07T19:45:34.691Z,6.72
2019-02-07T19:48:02.986Z,7.70
2019-02-07T19:50:31.292Z,7.28
2019-02-07T19:52:59.591Z,7.50
2019-02-07T19:55:33.226Z,7.42
2019-02-07T19:58:01.527Z,7.33
2019-02-07T20:00:31.764Z,6.70
2019-02-07T20:03:00.224Z,6.28
2019-02-07T20:05:28.663Z,7.00
2019-02-07T20:07:57.098Z,6.40
2019-02-07T20:10:27.207Z,6.62
2019-02-07T20:12:56.584Z,6.42
2019-02-07T20:15:28.190Z,6.50
2019-02-07T20:17:59.764Z,5.83
2019-02-07T20:20:26.617Z,6.30
2019-02-07T20:22:55.050Z,5.78
2019-02-07T20:25:23.571Z,6.25
2019-02-07T20:27:51.887Z,5.60
2019-02-07T20:30:31.611Z,5.92
2019-02-07T20:33:01.149Z,5.45
2019-02-07T20:35:29.411Z,5.80
2019-02-07T20:37:57.741Z,5.08
2019-02-07T20:40:27.744Z,5.22
2019-02-07T20:42:56.191Z,5.28
2019-02-07T20:45:24.821Z,5.50
2019-02-07T20:47:53.206Z,5.80
2019-02-07T20:50:26.784Z,5.25
2019-02-07T20:52:55.092Z,4.72
2019-02-07T20:55:23.706Z,4.45
2019-02-07T20:57:52.360Z,4.25
2019-02-07T21:00:31.927Z,4.37
2019-02-07T21:03:00.228Z,3.90
2019-02-07T21:05:30.032Z,3.80
2019-02-07T21:08:01.146Z,4.03
2019-02-07T21:10:31.469Z,3.08
2019-02-07T21:12:59.809Z,3.47
2019-02-07T21:15:28.407Z,3.58
2019-02-07T21:17:56.754Z,3.37
2019-02-07T21:20:27.625Z,3.20
2019-02-07T21:22:56.747Z,2.98
2019-02-07T21:25:32.229Z,2.77
2019-02-07T21:28:02.347Z,2.92
2019-02-07T21:30:37.549Z,3.17
2019-02-07T21:33:06.259Z,3.00
2019-02-07T21:35:34.572Z,3.95
2019-02-07T21:38:02.925Z,3.15
2019-02-07T21:40:34.090Z,2.60
2019-02-07T21:43:02.355Z,2.50
2019-02-07T21:45:30.993Z,2.75
2019-02-07T21:48:00.002Z,2.90
2019-02-07T21:50:30.309Z,2.40
2019-02-07T21:53:00.234Z,3.15
2019-02-07T21:55:36.025Z,2.98
2019-02-07T21:58:05.648Z,3.00
2019-02-07T22:00:36.235Z,3.35
2019-02-07T22:03:07.427Z,3.22
2019-02-07T22:05:35.700Z,3.40
2019-02-07T22:08:04.544Z,3.55
2019-02-07T22:10:32.814Z,3.70
2019-02-07T22:13:01.077Z,4.17
2019-02-07T22:15:29.907Z,3.90
2019-02-07T22:17:58.186Z,3.72
2019-02-07T22:20:28.185Z,4.12
2019-02-07T22:22:57.089Z,4.22
2019-02-07T22:25:25.354Z,4.62
2019-02-07T22:27:53.636Z,4.20
2019-02-07T22:30:27.650Z,4.80
2019-02-07T22:32:56.010Z,4.25
2019-02-07T22:35:29.972Z,4.08
2019-02-07T22:37:58.281Z,4.50
2019-02-07T22:40:26.636Z,4.30
2019-02-07T22:42:54.922Z,4.20
2019-02-07T22:45:26.622Z,4.42
2019-02-07T22:47:54.875Z,4.40
2019-02-07T22:50:30.589Z,4.25
2019-02-07T22:53:00.519Z,4.65
2019-02-07T22:55:28.838Z,4.00
2019-02-07T22:57:57.135Z,4.05
2019-02-07T23:00:36.505Z,4.28
2019-02-07T23:03:10.085Z,4.37
2019-02-07T23:05:38.369Z,5.17
2019-02-07T23:08:06.631Z,4.25
2019-02-07T23:10:34.936Z,4.97
2019-02-07T23:13:03.601Z,4.42
2019-02-07T23:15:31.845Z,4.90
2019-02-07T23:18:00.099Z,4.35
2019-02-07T23:20:28.383Z,4.62
2019-02-07T23:23:04.567Z,4.67
2019-02-07T23:25:26.681Z,4.30
2019-02-07T23:27:55.439Z,5.20
2019-02-07T23:30:23.712Z,4.60
2019-02-07T23:32:51.997Z,4.90
2019-02-07T23:35:21.963Z,4.87
2019-02-07T23:37:50.213Z,3.92
2019-02-07T23:40:22.722Z,3.92
2019-02-07T23:42:50.965Z,4.85
2019-02-07T23:45:21.105Z,4.40
2019-02-07T23:47:49.434Z,4.15
2019-02-07T23:50:17.764Z,3.77
2019-02-07T23:52:46.023Z,3.72
2019-02-07T23:55:15.148Z,4.10
2019-02-07T23:57:43.439Z,3.62
